Time;durP1;ratioP1;P1;durP2;ratioP2;P2;SDS_P1;SDS_P2;PMS_P1;PMS_P2;Temp;Humidity;BMP_temperature;BMP_pressure;BME280_temperature;BME280_humidity;BME280_pressure;Samples;Min_cycle;Max_cycle;Signal;HPM_P1;HPM_P2
2024/03/19 00:04:50;;;;;;;1999.90;999.90;;;;;;;7.60;100.00;101670.84;10399697;28;20048;-69
2024/03/19 00:09:52;;;;;;;1999.90;999.90;;;;;;;7.83;100.00;101669.25;10400090;28;20052;-69
2024/03/19 00:14:53;;;;;;;1999.90;999.90;;;;;;;7.81;100.00;101668.47;10400104;28;20045;-69
2024/03/19 00:19:55;;;;;;;1999.90;999.90;;;;;;;7.66;100.00;101669.78;10399982;28;20046;-69
2024/03/19 00:24:57;;;;;;;1999.90;999.90;;;;;;;7.84;100.00;101665.75;10398931;28;20054;-69
2024/03/19 00:29:58;;;;;;;1999.90;999.90;;;;;;;7.66;100.00;101664.59;10399117;28;20417;-69
2024/03/19 00:35:00;;;;;;;1999.90;999.90;;;;;;;7.67;100.00;101660.25;10398379;28;20046;-69
2024/03/19 00:40:02;;;;;;;1999.90;999.90;;;;;;;7.63;100.00;101654.25;10399135;28;20056;-69
2024/03/19 00:45:03;;;;;;;1999.90;999.90;;;;;;;7.86;100.00;101647.47;10382410;28;20560;-69
2024/03/19 00:50:06;;;;;;;1999.90;999.90;;;;;;;8.02;100.00;101634.75;10398652;28;20060;-69
2024/03/19 00:55:08;;;;;;;1999.90;999.90;;;;;;;8.11;100.00;101626.66;10398091;28;20414;-69
2024/03/19 01:00:11;;;;;;;1999.90;999.90;;;;;;;8.11;100.00;101624.03;10415381;28;20057;-69
2024/03/19 01:05:13;;;;;;;1999.90;999.90;;;;;;;8.20;100.00;101621.09;10381790;28;20044;-69
2024/03/19 01:10:16;;;;;;;1999.90;999.90;;;;;;;8.32;100.00;101618.09;10413922;28;20064;-69
2024/03/19 01:15:17;;;;;;;1999.90;999.90;;;;;;;8.19;100.00;101611.59;10413808;28;20045;-69
2024/03/19 01:20:18;;;;;;;1999.90;999.90;;;;;;;8.32;100.00;101604.16;10397769;28;20197;-69
2024/03/19 01:25:20;;;;;;;1999.90;999.90;;;;;;;8.27;100.00;101603.47;10380633;28;20045;-69
2024/03/19 01:30:23;;;;;;;1999.90;999.90;;;;;;;8.44;100.00;101602.91;10397155;28;20049;-69
2024/03/19 01:35:24;;;;;;;1999.90;999.90;;;;;;;8.40;100.00;101598.69;10396599;28;20053;-69
2024/03/19 01:40:26;;;;;;;1999.90;999.90;;;;;;;8.38;100.00;101596.97;10380602;28;20061;-69
2024/03/19 01:45:27;;;;;;;1999.90;999.90;;;;;;;8.47;100.00;101600.22;10412759;28;20049;-69
2024/03/19 01:50:29;;;;;;;1999.90;999.90;;;;;;;8.57;100.00;101590.28;10396719;28;20057;-69
2024/03/19 01:55:31;;;;;;;1999.90;999.90;;;;;;;8.54;100.00;101591.28;10396562;28;20415;-69
2024/03/19 02:00:32;;;;;;;1999.90;999.90;;;;;;;8.47;100.00;101595.84;10396513;28;20054;-69
2024/03/19 02:05:34;;;;;;;1999.90;999.90;;;;;;;8.59;100.00;101591.09;10380024;28;20149;-69
2024/03/19 02:10:35;;;;;;;1999.90;999.90;;;;;;;8.63;100.00;101597.91;10395815;28;20422;-69
2024/03/19 02:15:36;;;;;;;1999.90;999.90;;;;;;;8.72;100.00;101594.94;10379740;28;20046;-69
2024/03/19 02:20:38;;;;;;;1999.90;999.90;;;;;;;8.78;100.00;101597.34;10412715;28;20049;-69
2024/03/19 02:25:39;;;;;;;1999.90;999.90;;;;;;;8.85;100.00;101593.59;10395979;28;20146;-69
2024/03/19 02:30:41;;;;;;;1999.90;999.90;;;;;;;8.84;100.00;101593.63;10396406;28;20061;-69
2024/03/19 02:35:42;;;;;;;1999.90;999.90;;;;;;;8.78;100.00;101597.34;10393883;28;20061;-69
2024/03/19 02:40:44;;;;;;;1999.90;999.90;;;;;;;8.85;100.00;101606.66;10479673;23;20495;-68
2024/03/19 02:45:45;;;;;;;1999.90;999.90;;;;;;;8.94;100.00;101602.81;10455549;28;20045;-69
2024/03/19 02:50:47;;;;;;;1999.90;999.90;;;;;;;9.07;100.00;101608.44;10495492;28;20064;-69
2024/03/19 02:55:48;;;;;;;1999.90;999.90;;;;;;;9.06;100.00;101598.91;10490536;28;20412;-69
2024/03/19 03:00:53;;;;;;;1999.90;999.90;;;;;;;9.21;100.00;101607.91;10510126;28;20412;-69
2024/03/19 03:05:55;;;;;;;1999.90;999.90;;;;;;;9.13;100.00;101621.28;10510290;28;20040;-69
2024/03/19 03:10:56;;;;;;;1999.90;999.90;;;;;;;9.27;100.00;101612.91;10506643;28;20048;-69
2024/03/19 03:15:57;;;;;;;1999.90;999.90;;;;;;;9.16;100.00;101628.16;10498648;28;20652;-69
2024/03/19 03:21:00;;;;;;;1999.90;999.90;;;;;;;9.08;100.00;101620.63;10526022;28;20055;-69
2024/03/19 03:26:02;;;;;;;1999.90;999.90;;;;;;;9.10;100.00;101630.06;10508980;28;20052;-69
2024/03/19 03:31:03;;;;;;;1999.90;999.90;;;;;;;9.26;100.00;101626.88;10479422;28;20063;-69
2024/03/19 03:36:05;;;;;;;1999.90;999.90;;;;;;;9.22;100.00;101620.91;10508330;28;20052;-69
2024/03/19 03:41:07;;;;;;;1999.90;999.90;;;;;;;9.45;100.00;101629.66;10490590;28;20393;-69
2024/03/19 03:46:09;;;;;;;1999.90;999.90;;;;;;;9.75;100.00;101631.94;10496781;28;20048;-69
2024/03/19 03:51:10;;;;;;;1999.90;999.90;;;;;;;9.61;100.00;101633.31;10505972;28;20052;-69
2024/03/19 03:56:12;;;;;;;1999.90;999.90;;;;;;;10.07;100.00;101629.75;10508199;28;20052;-69
2024/03/19 04:01:13;;;;;;;1999.90;999.90;;;;;;;10.10;100.00;101637.47;10507781;28;20044;-69
2024/03/19 04:06:15;;;;;;;1999.90;999.90;;;;;;;9.98;100.00;101647.53;10507008;28;20055;-69
2024/03/19 04:11:16;;;;;;;1999.90;999.90;;;;;;;10.08;100.00;101639.31;10507797;28;20055;-69
2024/03/19 04:16:17;;;;;;;1999.90;999.90;;;;;;;10.10;100.00;101651.41;10524033;28;20117;-69
2024/03/19 04:21:21;;;;;;;1999.90;999.90;;;;;;;9.93;100.00;101646.88;10506647;28;20066;-69
2024/03/19 04:26:22;;;;;;;1999.90;999.90;;;;;;;9.91;100.00;101660.94;10507162;28;20052;-69
2024/03/19 04:31:24;;;;;;;1999.90;999.90;;;;;;;9.90;100.00;101659.22;10486176;28;20044;-69
2024/03/19 04:36:25;;;;;;;1999.90;999.90;;;;;;;10.05;100.00;101653.34;10522903;28;20410;-69
2024/03/19 04:41:27;;;;;;;1999.90;999.90;;;;;;;10.01;100.00;101651.78;10483505;28;20052;-69
2024/03/19 04:46:28;;;;;;;1999.90;999.90;;;;;;;10.22;100.00;101656.13;10491867;28;20083;-69
2024/03/19 04:51:31;;;;;;;1999.90;999.90;;;;;;;10.09;100.00;101647.09;10505984;28;20048;-69
2024/03/19 04:56:33;;;;;;;1999.90;999.90;;;;;;;10.13;100.00;101653.88;10506212;28;20056;-69
2024/03/19 05:01:34;;;;;;;1999.90;999.90;;;;;;;10.09;100.00;101660.19;10505207;28;20055;-69
2024/03/19 05:06:36;;;;;;;1999.90;999.90;;;;;;;10.15;100.00;101652.06;10505434;28;20408;-69
2024/03/19 05:11:38;;;;;;;1999.90;999.90;;;;;;;9.95;100.00;101652.91;10521691;28;20048;-69
2024/03/19 05:16:39;;;;;;;1999.90;999.90;;;;;;;10.06;100.00;101656.84;10505125;28;20051;-69
2024/03/19 05:21:42;;;;;;;1999.90;999.90;;;;;;;10.02;100.00;101663.97;10504228;28;20047;-69
2024/03/19 05:26:43;;;;;;;1999.90;999.90;;;;;;;10.06;100.00;101667.31;10504947;28;20056;-69
2024/03/19 05:31:44;;;;;;;1999.90;999.90;;;;;;;10.12;100.00;101665.28;10504063;28;20044;-69
2024/03/19 05:36:46;;;;;;;1999.90;999.90;;;;;;;10.06;100.00;101667.31;10485735;28;20048;-69
2024/03/19 05:41:47;;;;;;;1999.90;999.90;;;;;;;10.06;100.00;101673.38;10504445;28;20040;-69
2024/03/19 05:46:49;;;;;;;1999.90;999.90;;;;;;;10.13;100.00;101671.38;10470292;28;20052;-69
2024/03/19 05:51:50;;;;;;;1999.90;999.90;;;;;;;9.93;100.00;101687.88;10479564;28;20063;-70
2024/03/19 05:56:52;;;;;;;1999.90;999.90;;;;;;;9.93;100.00;101686.09;10488093;28;20064;-69
2024/03/19 06:01:54;;;;;;;1999.90;999.90;;;;;;;9.92;100.00;101683.53;10519816;28;20390;-69
2024/03/19 06:06:55;;;;;;;1999.90;999.90;;;;;;;9.83;100.00;101680.41;10503625;28;20485;-69
2024/03/19 06:11:58;;;;;;;1999.90;999.90;;;;;;;9.88;100.00;101679.38;10504021;28;20059;-69
2024/03/19 06:17:00;;;;;;;1999.90;999.90;;;;;;;10.07;100.00;101684.69;10487505;28;20059;-70
2024/03/19 06:22:01;;;;;;;1999.90;999.90;;;;;;;10.10;100.00;101676.72;10504194;28;20052;-69
2024/03/19 06:27:03;;;;;;;1999.90;999.90;;;;;;;10.06;100.00;101686.47;10503267;28;20416;-69
2024/03/19 06:32:06;;;;;;;1999.90;999.90;;;;;;;10.29;100.00;101696.00;10508354;28;20040;-69
2024/03/19 06:37:08;;;;;;;1999.90;999.90;;;;;;;10.35;100.00;101684.44;10511411;28;20099;-69
2024/03/19 06:42:09;;;;;;;1999.90;999.90;;;;;;;10.36;100.00;101692.22;10511132;28;20047;-69
2024/03/19 06:47:10;;;;;;;1999.90;999.90;;;;;;;10.29;100.00;101698.59;10496086;28;20048;-70
2024/03/19 06:52:12;;;;;;;1999.90;999.90;;;;;;;10.50;100.00;101701.25;10527733;28;20107;-69
2024/03/19 06:57:14;;;;;;;1999.90;999.90;;;;;;;10.65;100.00;101703.22;10494096;28;20048;-70
2024/03/19 07:02:18;;;;;;;1999.90;999.90;;;;;;;10.84;100.00;101702.41;10493705;28;20044;-70
2024/03/19 07:07:19;;;;;;;1999.90;999.90;;;;;;;10.78;100.00;101706.16;10509830;28;20056;-69
2024/03/19 07:12:21;;;;;;;1999.90;999.90;;;;;;;10.83;100.00;101709.44;10509377;28;20480;-69
2024/03/19 07:17:22;;;;;;;1999.90;999.90;;;;;;;11.05;100.00;101718.97;10509624;28;20493;-70
2024/03/19 07:22:25;;;;;;;1999.90;999.90;;;;;;;11.03;100.00;101707.69;10526018;28;20098;-70
2024/03/19 07:27:26;;;;;;;1999.90;999.90;;;;;;;10.97;100.00;101717.50;10509428;28;20068;-69
2024/03/19 07:32:27;;;;;;;1999.90;999.90;;;;;;;10.93;100.00;101709.88;10508639;28;20466;-69
2024/03/19 07:37:29;;;;;;;1999.90;999.90;;;;;;;11.00;100.00;101715.69;10480696;28;20056;-69
2024/03/19 07:42:30;;;;;;;1999.90;999.90;;;;;;;11.26;100.00;101718.00;10508426;28;20055;-69
2024/03/19 07:47:33;;;;;;;1999.90;999.90;;;;;;;11.31;100.00;101723.00;10494257;28;20044;-70
2024/03/19 07:52:37;;;;;;;1999.90;999.90;;;;;;;11.28;100.00;101729.25;10508701;28;20108;-70
2024/03/19 07:57:39;;;;;;;1999.90;999.90;;;;;;;11.32;100.00;101725.56;10508135;28;20090;-69
2024/03/19 08:02:41;;;;;;;1999.90;999.90;;;;;;;11.60;100.00;101737.41;10507474;28;20059;-69
2024/03/19 08:07:45;;;;;;;1999.90;999.90;;;;;;;11.72;100.00;101736.00;10487439;28;20496;-69
2024/03/19 08:12:47;;;;;;;1999.90;999.90;;;;;;;11.60;100.00;101733.91;10507600;28;20073;-70
2024/03/19 08:17:48;;;;;;;1999.90;999.90;;;;;;;11.42;100.00;101718.13;10508036;28;20055;-70
2024/03/19 08:22:50;;;;;;;1999.90;999.90;;;;;;;11.61;100.00;101733.84;10506536;28;20412;-75
2024/03/19 08:27:52;;;;;;;1999.90;999.90;;;;;;;11.58;100.00;101727.91;10507142;28;20044;-71
2024/03/19 08:32:53;;;;;;;1999.90;999.90;;;;;;;12.27;100.00;101735.09;10507121;28;20047;-71
2024/03/19 08:37:54;;;;;;;1999.90;999.90;;;;;;;12.60;95.77;101726.47;10506162;28;20416;-71
2024/03/19 08:42:56;;;;;;;1999.90;999.90;;;;;;;13.10;94.54;101730.88;10523083;28;20044;-71
2024/03/19 08:47:57;;;;;;;1999.90;999.90;;;;;;;13.46;92.52;101729.84;10491407;28;20527;-71
2024/03/19 08:52:59;;;;;;;1999.90;999.90;;;;;;;14.22;87.83;101723.84;10505304;28;20048;-71
2024/03/19 08:58:00;;;;;;;1999.90;999.90;;;;;;;15.16;83.63;101720.03;10476068;28;20052;-71
2024/03/19 09:03:04;;;;;;;1999.90;999.90;;;;;;;14.78;81.78;101720.59;10505513;28;20055;-71
2024/03/19 09:08:06;;;;;;;1999.90;999.90;;;;;;;15.17;82.37;101711.19;10489487;28;20051;-71
2024/03/19 09:13:08;;;;;;;1999.90;999.90;;;;;;;16.16;78.56;101721.59;10521091;28;20070;-71
2024/03/19 09:18:09;;;;;;;1999.90;999.90;;;;;;;16.14;77.29;101723.50;10504303;28;20412;-71
2024/03/19 09:23:10;;;;;;;1999.90;999.90;;;;;;;16.96;73.39;101713.53;10504622;28;20048;-71
2024/03/19 09:28:12;;;;;;;1999.90;999.90;;;;;;;15.83;73.11;101720.19;10504567;28;20516;-71
2024/03/19 09:33:14;;;;;;;1999.90;999.90;;;;;;;17.01;71.18;101711.44;10504757;28;20040;-71
2024/03/19 09:38:17;;;;;;;1999.90;999.90;;;;;;;16.12;71.95;101715.66;10503903;28;20056;-71
2024/03/19 09:43:23;;;;;;;1999.90;999.90;;;;;;;16.06;72.04;101721.34;10520935;28;20055;-71
2024/03/19 09:48:25;;;;;;;1999.90;999.90;;;;;;;16.44;71.82;101714.44;10490153;28;20055;-72
2024/03/19 09:53:29;;;;;;;1999.90;999.90;;;;;;;15.58;75.26;101721.78;10478952;28;20048;-71
2024/03/19 09:58:31;;;;;;;1999.90;999.90;;;;;;;15.27;73.35;101714.09;10503612;28;20389;-72
2024/03/19 10:03:32;;;;;;;1999.90;999.90;;;;;;;15.21;75.36;101704.75;10478034;28;20051;-72
2024/03/19 10:08:34;;;;;;;1999.90;999.90;;;;;;;15.69;76.44;101713.16;10512581;28;20067;-71
2024/03/19 10:13:35;;;;;;;1999.90;999.90;;;;;;;15.36;76.42;101716.97;10512927;28;20059;-71
2024/03/19 10:18:37;;;;;;;1999.90;999.90;;;;;;;15.33;77.02;101703.13;10511949;28;20455;-71
2024/03/19 10:23:39;;;;;;;1999.90;999.90;;;;;;;15.23;74.85;101702.88;10511758;28;20500;-71
2024/03/19 10:28:40;;;;;;;1999.90;999.90;;;;;;;15.57;75.24;101706.03;10511634;28;20558;-72
2024/03/19 10:33:44;;;;;;;1999.90;999.90;;;;;;;14.88;75.75;101707.69;10511048;28;20044;-72
2024/03/19 10:38:46;;;;;;;1999.90;999.90;;;;;;;14.94;75.24;101708.16;10511124;28;20122;-71
2024/03/19 10:43:48;;;;;;;1999.90;999.90;;;;;;;14.65;76.74;101712.56;10511050;28;20048;-71
2024/03/19 10:48:49;;;;;;;1999.90;999.90;;;;;;;14.79;76.86;101714.38;10496870;28;20056;-72
2024/03/19 10:53:55;;;;;;;1999.90;999.90;;;;;;;15.15;75.07;101706.00;10488953;28;20044;-72
2024/03/19 10:58:56;;;;;;;1999.90;999.90;;;;;;;14.81;75.74;101712.47;10510186;28;20412;-72
2024/03/19 11:04:01;;;;;;;1999.90;999.90;;;;;;;15.09;76.32;101703.72;10509466;28;20048;-71
2024/03/19 11:09:17;;;;;;;1999.90;999.90;;;;;;;15.33;76.44;101705.78;10526338;28;20052;-69
2024/03/19 11:14:20;;;;;;;1999.90;999.90;;;;;;;15.89;75.12;101711.06;10509657;28;20545;-69
2024/03/19 11:19:28;;;;;;;1999.90;999.90;;;;;;;16.33;74.09;101709.88;10492670;28;20063;-69
2024/03/19 11:24:36;;;;;;;1999.90;999.90;;;;;;;17.92;69.32;101701.41;10526188;28;20043;-69
2024/03/19 11:29:38;;;;;;;1999.90;999.90;;;;;;;18.75;65.36;101698.63;10509493;28;20098;-69
2024/03/19 11:34:39;;;;;;;1999.90;999.90;;;;;;;19.78;61.64;101691.41;10509223;28;20040;-70
2024/03/19 11:39:40;;;;;;;1999.90;999.90;;;;;;;20.67;57.53;101675.94;10485827;28;20072;-70
2024/03/19 11:44:46;;;;;;;1999.90;999.90;;;;;;;20.46;59.52;101678.63;10492025;28;20093;-70
2024/03/19 11:49:50;;;;;;;1999.90;999.90;;;;;;;18.70;61.16;101681.38;10495985;28;20063;-70
2024/03/19 11:54:51;;;;;;;1999.90;999.90;;;;;;;19.12;59.53;101681.66;10508781;28;20089;-70
2024/03/19 11:59:52;;;;;;;1999.90;999.90;;;;;;;18.31;60.59;101684.34;10508626;28;20056;-70
2024/03/19 12:04:56;;;;;;;1999.90;999.90;;;;;;;18.21;62.39;101686.00;10507376;28;20047;-70
2024/03/19 12:09:59;;;;;;;1999.90;999.90;;;;;;;18.40;62.40;101687.25;10507501;28;20067;-70
2024/03/19 12:15:00;;;;;;;1999.90;999.90;;;;;;;18.26;61.94;101678.53;10507203;28;20044;-69
2024/03/19 12:20:04;;;;;;;1999.90;999.90;;;;;;;18.12;61.47;101674.28;10506768;28;20124;-70
2024/03/19 12:25:10;;;;;;;1999.90;999.90;;;;;;;18.66;60.70;101682.56;10507119;28;20078;-70
2024/03/19 12:30:19;;;;;;;1999.90;999.90;;;;;;;17.78;62.13;101679.41;10521974;28;20048;-69
2024/03/19 12:35:21;;;;;;;1999.90;999.90;;;;;;;17.51;62.86;101674.34;10506302;28;20047;-70
2024/03/19 12:40:24;;;;;;;1999.90;999.90;;;;;;;17.44;63.26;101676.59;10481182;28;20126;-69
2024/03/19 12:45:26;;;;;;;1999.90;999.90;;;;;;;17.94;64.44;101673.84;10474550;28;20513;-70
2024/03/19 12:50:27;;;;;;;1999.90;999.90;;;;;;;17.74;62.80;101675.31;10456994;28;20055;-70
2024/03/19 12:55:29;;;;;;;1999.90;999.90;;;;;;;17.30;63.11;101660.88;10481344;28;20049;-70
2024/03/19 13:00:31;;;;;;;1999.90;999.90;;;;;;;16.70;64.45;101663.28;10480280;28;20055;-69
2024/03/19 13:05:33;;;;;;;1999.90;999.90;;;;;;;17.08;64.37;101662.41;10463197;28;20170;-70
2024/03/19 13:10:35;;;;;;;1999.90;999.90;;;;;;;17.33;62.54;101665.97;10463448;28;20142;-70
2024/03/19 13:15:36;;;;;;;1999.90;999.90;;;;;;;17.41;63.77;101666.22;10496289;28;20059;-69
2024/03/19 13:20:38;;;;;;;1999.90;999.90;;;;;;;17.93;63.33;101666.03;10497307;28;20052;-69
2024/03/19 13:25:39;;;;;;;1999.90;999.90;;;;;;;19.02;61.06;101660.31;10479971;28;20068;-70
2024/03/19 13:30:41;;;;;;;1999.90;999.90;;;;;;;19.23;57.45;101647.13;10496353;28;20048;-70
2024/03/19 13:35:42;;;;;;;1999.90;999.90;;;;;;;17.93;61.12;101653.63;10479469;28;20129;-69
2024/03/19 13:40:45;;;;;;;1999.90;999.90;;;;;;;18.06;61.97;101650.06;10447236;28;20052;-69
2024/03/19 13:45:47;;;;;;;1999.90;999.90;;;;;;;19.01;59.01;101641.84;10470363;28;20045;-68
2024/03/19 13:50:49;;;;;;;1999.90;999.90;;;;;;;19.07;58.67;101639.53;10491079;28;20063;-69
2024/03/19 13:55:50;;;;;;;1999.90;999.90;;;;;;;20.41;57.61;101636.47;10479455;28;20048;-69
2024/03/19 14:00:56;;;;;;;1999.90;999.90;;;;;;;21.95;53.69;101634.44;10478565;28;20060;-69
2024/03/19 14:05:58;;;;;;;1999.90;999.90;;;;;;;23.02;51.41;101628.75;10479112;28;20521;-69
2024/03/19 14:11:00;;;;;;;1999.90;999.90;;;;;;;24.42;52.98;101616.59;10479363;28;20052;-69
2024/03/19 14:16:02;;;;;;;1999.90;999.90;;;;;;;24.09;50.97;101611.06;10495407;28;20049;-69
2024/03/19 14:21:04;;;;;;;1999.90;999.90;;;;;;;22.93;50.98;101617.16;10472996;28;20509;-70
2024/03/19 14:26:05;;;;;;;1999.90;999.90;;;;;;;22.00;52.75;101610.84;10469718;28;20047;-69
2024/03/19 14:31:08;;;;;;;1999.90;999.90;;;;;;;24.84;48.72;101610.47;10478712;28;20055;-69
2024/03/19 14:36:10;;;;;;;1999.90;999.90;;;;;;;22.72;50.24;101605.88;10479047;28;20049;-69
2024/03/19 14:41:11;;;;;;;1999.90;999.90;;;;;;;25.14;49.54;101609.03;10494252;28;20056;-69
2024/03/19 14:46:13;;;;;;;1999.90;999.90;;;;;;;23.80;48.60;101609.47;10465137;28;20448;-69
2024/03/19 14:51:17;;;;;;;1999.90;999.90;;;;;;;22.11;53.13;101607.19;10478940;28;20056;-70
2024/03/19 14:56:18;;;;;;;1999.90;999.90;;;;;;;21.91;51.57;101601.06;10452761;22;20049;-71
2024/03/19 15:01:21;;;;;;;1999.90;999.90;;;;;;;23.82;47.81;101609.34;10461179;28;20053;-72
2024/03/19 15:06:22;;;;;;;1999.90;999.90;;;;;;;23.90;46.49;101612.94;10444068;28;20528;-71
2024/03/19 15:11:23;;;;;;;1999.90;999.90;;;;;;;24.56;47.35;101608.03;10443188;28;20181;-72
2024/03/19 15:16:25;;;;;;;1999.90;999.90;;;;;;;22.88;52.57;101611.44;10442873;28;20508;-72
2024/03/19 15:21:26;;;;;;;1999.90;999.90;;;;;;;21.72;50.83;101621.44;10442732;28;20490;-72
2024/03/19 15:26:28;;;;;;;1999.90;999.90;;;;;;;20.81;52.35;101620.69;10459267;28;20417;-71
2024/03/19 15:31:29;;;;;;;1999.90;999.90;;;;;;;20.97;53.87;101623.69;10459052;28;20426;-71
2024/03/19 15:36:31;;;;;;;1999.90;999.90;;;;;;;19.81;54.57;101630.06;10443253;28;20049;-71
2024/03/19 15:41:33;;;;;;;1999.90;999.90;;;;;;;20.00;55.73;101629.34;10442167;28;20452;-71
2024/03/19 15:46:34;;;;;;;1999.90;999.90;;;;;;;19.97;53.37;101622.50;10458600;28;20049;-71
2024/03/19 15:51:36;;;;;;;1999.90;999.90;;;;;;;20.00;53.19;101618.72;10442364;28;20045;-71
2024/03/19 15:56:37;;;;;;;1999.90;999.90;;;;;;;20.00;53.33;101603.59;10441484;28;20049;-71
2024/03/19 16:01:38;;;;;;;1999.90;999.90;;;;;;;21.51;50.01;101608.25;10440620;28;20052;-71
2024/03/19 16:06:46;;;;;;;1999.90;999.90;;;;;;;21.01;51.00;101614.44;10424547;28;20512;-72
2024/03/19 16:11:48;;;;;;;1999.90;999.90;;;;;;;20.06;53.28;101622.69;10442267;28;20060;-72
2024/03/19 16:16:49;;;;;;;1999.90;999.90;;;;;;;19.73;55.32;101629.81;10441487;28;20069;-71
2024/03/19 16:21:51;;;;;;;1999.90;999.90;;;;;;;19.17;58.83;101642.31;10441338;28;20064;-71
2024/03/19 16:26:54;;;;;;;1999.90;999.90;;;;;;;19.04;55.03;101645.09;10440512;28;20052;-71
2024/03/19 16:31:59;;;;;;;1999.90;999.90;;;;;;;18.80;60.49;101633.75;10440174;28;20053;-71
2024/03/19 16:37:00;;;;;;;1999.90;999.90;;;;;;;18.09;63.05;101641.84;10457061;28;20057;-71
2024/03/19 16:42:02;;;;;;;1999.90;999.90;;;;;;;17.40;65.90;101653.97;10440433;28;20045;-71
2024/03/19 16:47:03;;;;;;;1999.90;999.90;;;;;;;17.16;67.04;101656.56;10440382;28;20045;-71
2024/03/19 16:52:05;;;;;;;1999.90;999.90;;;;;;;16.83;68.38;101657.16;10439649;28;20049;-71
2024/03/19 16:57:09;;;;;;;1999.90;999.90;;;;;;;16.57;67.37;101666.88;10439121;28;20489;-71
2024/03/19 17:02:14;;;;;;;1999.90;999.90;;;;;;;16.26;69.78;101671.63;10439898;28;20052;-72
2024/03/19 17:07:18;;;;;;;1999.90;999.90;;;;;;;16.26;72.45;101668.97;10455894;28;20049;-71
2024/03/19 17:12:19;;;;;;;1999.90;999.90;;;;;;;16.21;71.06;101674.56;10422367;28;20403;-71
2024/03/19 17:17:21;;;;;;;1999.90;999.90;;;;;;;16.16;72.14;101681.97;10437914;28;20053;-71
2024/03/19 17:22:23;;;;;;;1999.90;999.90;;;;;;;15.82;75.20;101676.28;10438396;28;20053;-71
2024/03/19 17:27:25;;;;;;;1999.90;999.90;;;;;;;15.63;75.63;101688.94;10439037;28;20056;-70
2024/03/19 17:32:27;;;;;;;1999.90;999.90;;;;;;;15.34;74.88;101683.75;10438266;28;20057;-71
2024/03/19 17:37:29;;;;;;;1999.90;999.90;;;;;;;15.31;75.46;101684.75;10438866;28;20060;-70
2024/03/19 17:42:30;;;;;;;1999.90;999.90;;;;;;;15.14;74.77;101692.91;10437988;28;20041;-70
2024/03/19 17:47:32;;;;;;;1999.90;999.90;;;;;;;15.12;74.03;101702.72;10438306;28;20053;-70
2024/03/19 17:52:33;;;;;;;1999.90;999.90;;;;;;;14.91;75.19;101712.78;10437757;28;20044;-70
2024/03/19 17:57:35;;;;;;;1999.90;999.90;;;;;;;14.83;75.77;101715.91;10454183;28;20102;-70
2024/03/19 18:02:37;;;;;;;1999.90;999.90;;;;;;;14.88;75.51;101721.75;10437801;28;20048;-70
2024/03/19 18:07:38;;;;;;;1999.90;999.90;;;;;;;14.59;76.50;101736.66;10437777;28;20057;-70
2024/03/19 18:12:40;;;;;;;1999.90;999.90;;;;;;;14.52;77.62;101751.09;10437520;28;20501;-70
2024/03/19 18:17:42;;;;;;;1999.90;999.90;;;;;;;14.50;76.75;101753.81;10436980;28;20429;-70
2024/03/19 18:22:44;;;;;;;1999.90;999.90;;;;;;;14.47;77.62;101757.50;10437352;28;20053;-70
2024/03/19 18:27:46;;;;;;;1999.90;999.90;;;;;;;14.25;78.14;101762.31;10441833;28;20053;-70
2024/03/19 18:32:47;;;;;;;1999.90;999.90;;;;;;;14.15;78.24;101772.50;10445565;28;20045;-70
2024/03/19 18:37:49;;;;;;;1999.90;999.90;;;;;;;14.23;78.32;101774.72;10444577;28;20091;-70
2024/03/19 18:42:56;;;;;;;1999.90;999.90;;;;;;;13.86;79.67;101777.63;10461323;28;20041;-70
2024/03/19 18:47:58;;;;;;;1999.90;999.90;;;;;;;13.74;80.58;101775.69;10460886;28;20528;-70
2024/03/19 18:52:59;;;;;;;1999.90;999.90;;;;;;;13.54;82.62;101779.41;10460919;28;20068;-70
2024/03/19 18:58:01;;;;;;;1999.90;999.90;;;;;;;13.52;80.89;101783.91;10443746;28;20516;-70
2024/03/19 19:03:02;;;;;;;1999.90;999.90;;;;;;;13.27;82.87;101776.47;10443555;28;20406;-70
2024/03/19 19:08:04;;;;;;;1999.90;999.90;;;;;;;12.90;85.26;101789.75;10460703;28;20056;-70
2024/03/19 19:13:06;;;;;;;1999.90;999.90;;;;;;;13.06;85.11;101792.41;10444451;28;20041;-70
2024/03/19 19:18:07;;;;;;;1999.90;999.90;;;;;;;13.05;87.11;101793.34;10443028;28;20060;-70
2024/03/19 19:23:09;;;;;;;1999.90;999.90;;;;;;;13.08;86.60;101785.31;10459509;28;20040;-70
2024/03/19 19:28:10;;;;;;;1999.90;999.90;;;;;;;12.88;87.67;101796.88;10443386;28;20061;-70
2024/03/19 19:33:12;;;;;;;1999.90;999.90;;;;;;;12.70;89.77;101806.50;10442656;28;20514;-70
2024/03/19 19:38:19;;;;;;;1999.90;999.90;;;;;;;12.98;88.44;101802.50;10442282;28;20075;-70
2024/03/19 19:43:21;;;;;;;1999.90;999.90;;;;;;;12.86;87.60;101803.09;10442232;28;20094;-70
2024/03/19 19:48:23;;;;;;;1999.90;999.90;;;;;;;12.64;89.25;101804.19;10459196;28;20049;-70
2024/03/19 19:53:25;;;;;;;1999.90;999.90;;;;;;;12.52;91.00;101805.66;10441960;28;20087;-70
2024/03/19 19:58:26;;;;;;;1999.90;999.90;;;;;;;12.24;92.59;101806.19;10458245;28;20395;-70
2024/03/19 20:03:29;;;;;;;1999.90;999.90;;;;;;;12.31;90.71;101815.44;10441142;28;20103;-70
2024/03/19 20:08:31;;;;;;;1999.90;999.90;;;;;;;12.20;93.76;101817.72;10441409;28;20445;-70
2024/03/19 20:13:32;;;;;;;1999.90;999.90;;;;;;;12.07;94.61;101810.44;10441030;28;20505;-70
2024/03/19 20:18:35;;;;;;;1999.90;999.90;;;;;;;12.20;92.61;101808.06;10441172;28;20049;-70
2024/03/19 20:23:36;;;;;;;1999.90;999.90;;;;;;;11.98;95.99;101812.66;10441309;28;20059;-70
2024/03/19 20:28:38;;;;;;;1999.90;999.90;;;;;;;11.90;95.63;101824.34;10424566;28;20064;-70
2024/03/19 20:33:40;;;;;;;1999.90;999.90;;;;;;;11.90;94.74;101823.47;10456782;28;20048;-70
2024/03/19 20:38:41;;;;;;;1999.90;999.90;;;;;;;11.79;95.84;101821.34;10440183;28;20075;-69
2024/03/19 20:43:43;;;;;;;1999.90;999.90;;;;;;;11.56;97.99;101818.94;10440203;28;20064;-70
2024/03/19 20:48:45;;;;;;;1999.90;999.90;;;;;;;11.36;99.02;101818.03;10438635;28;20412;-70
2024/03/19 20:53:47;;;;;;;1999.90;999.90;;;;;;;11.42;96.79;101819.56;10439181;28;20410;-70
2024/03/19 20:58:49;;;;;;;1999.90;999.90;;;;;;;11.26;97.99;101817.63;10439152;28;20049;-70
2024/03/19 21:03:51;;;;;;;1999.90;999.90;;;;;;;10.97;98.35;101824.94;10439117;28;20045;-70
2024/03/19 21:08:53;;;;;;;1999.90;999.90;;;;;;;10.90;100.00;101818.28;10455262;28;20402;-70
2024/03/19 21:13:55;;;;;;;1999.90;999.90;;;;;;;10.91;99.91;101814.75;10455345;28;20071;-70
2024/03/19 21:18:57;;;;;;;1999.90;999.90;;;;;;;10.56;100.00;101822.31;10438547;28;20413;-69
2024/03/19 21:23:58;;;;;;;1999.90;999.90;;;;;;;10.68;100.00;101823.56;10438217;28;20490;-70
2024/03/19 21:29:00;;;;;;;1999.90;999.90;;;;;;;10.57;100.00;101828.38;10438804;28;20049;-70
2024/03/19 21:34:01;;;;;;;1999.90;999.90;;;;;;;10.50;100.00;101829.56;10421947;28;20053;-70
2024/03/19 21:39:04;;;;;;;1999.90;999.90;;;;;;;10.46;100.00;101834.06;10437976;28;20052;-70
2024/03/19 21:44:05;;;;;;;1999.90;999.90;;;;;;;10.29;100.00;101828.59;10438172;28;20849;-70
2024/03/19 21:49:07;;;;;;;1999.90;999.90;;;;;;;10.23;100.00;101827.94;10438041;28;20056;-70